sensor_id;sensor_type;location;lat;lon;timestamp;P1;durP1;ratioP1;P2;durP2;ratioP2
44536;SDS011;30245;51.966;6.292;2024-03-08T00:00:38;24.07;;;15.87;;
44536;SDS011;30245;51.966;6.292;2024-03-08T00:03:05;29.93;;;17.67;;
44536;SDS011;30245;51.966;6.292;2024-03-08T00:05:31;27.60;;;16.17;;
44536;SDS011;30245;51.966;6.292;2024-03-08T00:07:56;21.67;;;15.37;;
44536;SDS011;30245;51.966;6.292;2024-03-08T00:10:22;26.87;;;15.40;;
44536;SDS011;30245;51.966;6.292;2024-03-08T00:12:47;23.13;;;15.23;;
44536;SDS011;30245;51.966;6.292;2024-03-08T00:15:14;26.53;;;14.90;;
44536;SDS011;30245;51.966;6.292;2024-03-08T00:17:41;27.37;;;15.97;;
44536;SDS011;30245;51.966;6.292;2024-03-08T00:20:07;27.77;;;16.53;;
44536;SDS011;30245;51.966;6.292;2024-03-08T00:22:37;22.07;;;14.53;;
44536;SDS011;30245;51.966;6.292;2024-03-08T00:25:06;31.53;;;14.90;;
44536;SDS011;30245;51.966;6.292;2024-03-08T00:27:35;22.97;;;15.50;;
44536;SDS011;30245;51.966;6.292;2024-03-08T00:30:01;24.73;;;14.50;;
44536;SDS011;30245;51.966;6.292;2024-03-08T00:32:28;23.60;;;14.33;;
44536;SDS011;30245;51.966;6.292;2024-03-08T00:34:54;25.13;;;14.93;;
44536;SDS011;30245;51.966;6.292;2024-03-08T00:37:20;23.00;;;15.33;;
44536;SDS011;30245;51.966;6.292;2024-03-08T00:39:49;24.90;;;14.07;;
44536;SDS011;30245;51.966;6.292;2024-03-08T00:42:16;21.10;;;13.67;;
44536;SDS011;30245;51.966;6.292;2024-03-08T00:44:42;16.60;;;12.30;;
44536;SDS011;30245;51.966;6.292;2024-03-08T00:47:08;22.57;;;13.90;;
44536;SDS011;30245;51.966;6.292;2024-03-08T00:49:33;21.87;;;13.30;;
44536;SDS011;30245;51.966;6.292;2024-03-08T00:51:59;21.80;;;14.17;;
44536;SDS011;30245;51.966;6.292;2024-03-08T00:54:25;23.23;;;13.87;;
44536;SDS011;30245;51.966;6.292;2024-03-08T00:56:51;26.77;;;16.10;;
44536;SDS011;30245;51.966;6.292;2024-03-08T00:59:16;21.37;;;14.00;;
44536;SDS011;30245;51.966;6.292;2024-03-08T01:01:42;18.43;;;12.60;;
44536;SDS011;30245;51.966;6.292;2024-03-08T01:04:09;21.53;;;15.13;;
44536;SDS011;30245;51.966;6.292;2024-03-08T01:06:35;19.77;;;14.00;;
44536;SDS011;30245;51.966;6.292;2024-03-08T01:09:00;20.47;;;13.50;;
44536;SDS011;30245;51.966;6.292;2024-03-08T01:11:26;22.40;;;13.73;;
44536;SDS011;30245;51.966;6.292;2024-03-08T01:13:53;19.57;;;13.80;;
44536;SDS011;30245;51.966;6.292;2024-03-08T01:16:18;18.67;;;12.03;;
44536;SDS011;30245;51.966;6.292;2024-03-08T01:18:46;20.23;;;13.47;;
44536;SDS011;30245;51.966;6.292;2024-03-08T01:21:12;22.57;;;14.83;;
44536;SDS011;30245;51.966;6.292;2024-03-08T01:23:38;20.93;;;14.20;;
44536;SDS011;30245;51.966;6.292;2024-03-08T01:26:03;19.60;;;12.47;;
44536;SDS011;30245;51.966;6.292;2024-03-08T01:28:29;20.13;;;13.70;;
44536;SDS011;30245;51.966;6.292;2024-03-08T01:30:55;19.80;;;12.37;;
44536;SDS011;30245;51.966;6.292;2024-03-08T01:33:24;22.87;;;14.63;;
44536;SDS011;30245;51.966;6.292;2024-03-08T01:35:51;23.27;;;14.83;;
44536;SDS011;30245;51.966;6.292;2024-03-08T01:38:17;19.13;;;13.33;;
44536;SDS011;30245;51.966;6.292;2024-03-08T01:40:43;17.13;;;13.53;;
44536;SDS011;30245;51.966;6.292;2024-03-08T01:43:42;21.50;;;14.43;;
44536;SDS011;30245;51.966;6.292;2024-03-08T01:46:01;21.83;;;13.53;;
44536;SDS011;30245;51.966;6.292;2024-03-08T01:48:30;20.87;;;14.73;;
44536;SDS011;30245;51.966;6.292;2024-03-08T01:50:56;19.03;;;14.43;;
44536;SDS011;30245;51.966;6.292;2024-03-08T01:53:23;14.93;;;12.43;;
44536;SDS011;30245;51.966;6.292;2024-03-08T01:55:49;20.53;;;14.53;;
44536;SDS011;30245;51.966;6.292;2024-03-08T01:58:17;21.67;;;15.23;;
44536;SDS011;30245;51.966;6.292;2024-03-08T02:00:45;20.05;;;14.75;;
44536;SDS011;30245;51.966;6.292;2024-03-08T02:03:15;20.50;;;15.57;;
44536;SDS011;30245;51.966;6.292;2024-03-08T02:05:41;18.33;;;13.30;;
44536;SDS011;30245;51.966;6.292;2024-03-08T02:08:08;22.90;;;14.13;;
44536;SDS011;30245;51.966;6.292;2024-03-08T02:10:39;17.70;;;12.93;;
44536;SDS011;30245;51.966;6.292;2024-03-08T02:13:06;22.40;;;16.50;;
44536;SDS011;30245;51.966;6.292;2024-03-08T02:15:51;18.73;;;14.40;;
44536;SDS011;30245;51.966;6.292;2024-03-08T02:18:18;22.67;;;16.17;;
44536;SDS011;30245;51.966;6.292;2024-03-08T02:20:49;22.07;;;15.10;;
44536;SDS011;30245;51.966;6.292;2024-03-08T02:23:15;18.30;;;14.40;;
44536;SDS011;30245;51.966;6.292;2024-03-08T02:25:41;20.37;;;14.93;;
44536;SDS011;30245;51.966;6.292;2024-03-08T02:28:09;25.23;;;16.47;;
44536;SDS011;30245;51.966;6.292;2024-03-08T02:30:36;20.83;;;13.88;;
44536;SDS011;30245;51.966;6.292;2024-03-08T02:33:01;20.10;;;14.60;;
44536;SDS011;30245;51.966;6.292;2024-03-08T02:35:27;20.33;;;14.93;;
44536;SDS011;30245;51.966;6.292;2024-03-08T02:37:52;19.33;;;14.23;;
44536;SDS011;30245;51.966;6.292;2024-03-08T02:40:18;22.33;;;15.87;;
44536;SDS011;30245;51.966;6.292;2024-03-08T02:42:43;20.83;;;14.77;;
44536;SDS011;30245;51.966;6.292;2024-03-08T02:45:09;21.83;;;15.87;;
44536;SDS011;30245;51.966;6.292;2024-03-08T02:47:35;25.23;;;17.80;;
44536;SDS011;30245;51.966;6.292;2024-03-08T02:50:01;24.63;;;15.50;;
44536;SDS011;30245;51.966;6.292;2024-03-08T02:52:26;20.17;;;15.47;;
44536;SDS011;30245;51.966;6.292;2024-03-08T02:54:52;22.27;;;16.23;;
44536;SDS011;30245;51.966;6.292;2024-03-08T02:57:18;22.80;;;17.17;;
44536;SDS011;30245;51.966;6.292;2024-03-08T02:59:43;25.07;;;17.47;;
44536;SDS011;30245;51.966;6.292;2024-03-08T03:02:10;23.43;;;16.37;;
44536;SDS011;30245;51.966;6.292;2024-03-08T03:04:36;22.70;;;16.33;;
44536;SDS011;30245;51.966;6.292;2024-03-08T03:07:05;28.85;;;17.77;;
44536;SDS011;30245;51.966;6.292;2024-03-08T03:09:30;24.00;;;17.37;;
44536;SDS011;30245;51.966;6.292;2024-03-08T03:11:57;22.40;;;16.63;;
44536;SDS011;30245;51.966;6.292;2024-03-08T03:14:23;23.50;;;18.03;;
44536;SDS011;30245;51.966;6.292;2024-03-08T03:16:49;23.67;;;17.87;;
44536;SDS011;30245;51.966;6.292;2024-03-08T03:19:15;22.37;;;17.03;;
44536;SDS011;30245;51.966;6.292;2024-03-08T03:21:40;21.87;;;15.93;;
44536;SDS011;30245;51.966;6.292;2024-03-08T03:24:08;23.23;;;16.80;;
44536;SDS011;30245;51.966;6.292;2024-03-08T03:26:36;21.27;;;16.53;;
44536;SDS011;30245;51.966;6.292;2024-03-08T03:29:04;25.92;;;18.42;;
44536;SDS011;30245;51.966;6.292;2024-03-08T03:31:34;24.43;;;17.13;;
44536;SDS011;30245;51.966;6.292;2024-03-08T03:34:01;26.40;;;17.47;;
44536;SDS011;30245;51.966;6.292;2024-03-08T03:36:30;21.90;;;16.90;;
44536;SDS011;30245;51.966;6.292;2024-03-08T03:38:56;24.43;;;18.23;;
44536;SDS011;30245;51.966;6.292;2024-03-08T03:41:40;26.67;;;18.27;;
44536;SDS011;30245;51.966;6.292;2024-03-08T03:44:07;28.17;;;19.50;;
44536;SDS011;30245;51.966;6.292;2024-03-08T03:46:33;25.67;;;17.33;;
44536;SDS011;30245;51.966;6.292;2024-03-08T03:48:58;25.53;;;17.80;;
44536;SDS011;30245;51.966;6.292;2024-03-08T03:51:24;23.50;;;16.63;;
44536;SDS011;30245;51.966;6.292;2024-03-08T03:53:50;25.93;;;17.17;;
44536;SDS011;30245;51.966;6.292;2024-03-08T03:56:18;29.07;;;19.57;;
44536;SDS011;30245;51.966;6.292;2024-03-08T03:58:43;27.00;;;19.50;;
44536;SDS011;30245;51.966;6.292;2024-03-08T04:01:09;24.33;;;18.33;;
44536;SDS011;30245;51.966;6.292;2024-03-08T04:03:35;23.83;;;17.30;;
44536;SDS011;30245;51.966;6.292;2024-03-08T04:06:01;26.70;;;16.93;;
44536;SDS011;30245;51.966;6.292;2024-03-08T04:08:29;23.38;;;15.68;;
44536;SDS011;30245;51.966;6.292;2024-03-08T04:10:55;26.83;;;17.00;;
44536;SDS011;30245;51.966;6.292;2024-03-08T04:13:20;22.70;;;16.17;;
44536;SDS011;30245;51.966;6.292;2024-03-08T04:15:46;33.07;;;19.03;;
44536;SDS011;30245;51.966;6.292;2024-03-08T04:18:13;23.57;;;15.60;;
44536;SDS011;30245;51.966;6.292;2024-03-08T04:20:39;22.90;;;15.90;;
44536;SDS011;30245;51.966;6.292;2024-03-08T04:23:05;23.83;;;16.77;;
44536;SDS011;30245;51.966;6.292;2024-03-08T04:25:31;22.87;;;17.33;;
44536;SDS011;30245;51.966;6.292;2024-03-08T04:27:57;25.97;;;16.67;;
44536;SDS011;30245;51.966;6.292;2024-03-08T04:30:22;23.70;;;16.13;;
44536;SDS011;30245;51.966;6.292;2024-03-08T04:32:49;20.67;;;15.57;;
44536;SDS011;30245;51.966;6.292;2024-03-08T04:35:14;21.70;;;14.93;;
44536;SDS011;30245;51.966;6.292;2024-03-08T04:37:40;24.60;;;17.97;;
44536;SDS011;30245;51.966;6.292;2024-03-08T04:40:06;25.93;;;17.90;;
44536;SDS011;30245;51.966;6.292;2024-03-08T04:42:32;22.37;;;15.57;;
44536;SDS011;30245;51.966;6.292;2024-03-08T04:44:58;23.87;;;16.03;;
44536;SDS011;30245;51.966;6.292;2024-03-08T04:47:24;22.03;;;16.00;;
44536;SDS011;30245;51.966;6.292;2024-03-08T04:49:49;28.07;;;16.33;;
44536;SDS011;30245;51.966;6.292;2024-03-08T04:52:15;25.23;;;17.23;;
44536;SDS011;30245;51.966;6.292;2024-03-08T04:54:41;23.43;;;15.93;;
44536;SDS011;30245;51.966;6.292;2024-03-08T04:57:08;23.80;;;16.70;;
44536;SDS011;30245;51.966;6.292;2024-03-08T04:59:33;21.80;;;15.47;;
44536;SDS011;30245;51.966;6.292;2024-03-08T05:01:59;22.70;;;15.57;;
44536;SDS011;30245;51.966;6.292;2024-03-08T05:04:24;24.33;;;16.40;;
44536;SDS011;30245;51.966;6.292;2024-03-08T05:06:50;25.67;;;18.80;;
44536;SDS011;30245;51.966;6.292;2024-03-08T05:09:15;25.50;;;17.07;;
44536;SDS011;30245;51.966;6.292;2024-03-08T05:11:43;23.87;;;16.37;;
44536;SDS011;30245;51.966;6.292;2024-03-08T05:14:09;22.80;;;15.23;;
44536;SDS011;30245;51.966;6.292;2024-03-08T05:16:35;19.07;;;14.17;;
44536;SDS011;30245;51.966;6.292;2024-03-08T05:19:01;21.80;;;13.53;;
44536;SDS011;30245;51.966;6.292;2024-03-08T05:21:27;19.80;;;15.10;;
44536;SDS011;30245;51.966;6.292;2024-03-08T05:23:53;27.90;;;18.47;;
44536;SDS011;30245;51.966;6.292;2024-03-08T05:26:19;20.57;;;15.07;;
44536;SDS011;30245;51.966;6.292;2024-03-08T05:28:45;20.90;;;16.90;;
44536;SDS011;30245;51.966;6.292;2024-03-08T05:31:17;21.93;;;16.40;;
44536;SDS011;30245;51.966;6.292;2024-03-08T05:33:49;19.37;;;14.57;;
44536;SDS011;30245;51.966;6.292;2024-03-08T05:36:15;21.43;;;16.07;;
44536;SDS011;30245;51.966;6.292;2024-03-08T05:38:44;20.00;;;14.37;;
44536;SDS011;30245;51.966;6.292;2024-03-08T05:41:10;26.30;;;16.50;;
44536;SDS011;30245;51.966;6.292;2024-03-08T05:43:40;25.73;;;16.97;;
44536;SDS011;30245;51.966;6.292;2024-03-08T05:46:06;26.37;;;16.50;;
44536;SDS011;30245;51.966;6.292;2024-03-08T05:48:32;21.40;;;15.03;;
44536;SDS011;30245;51.966;6.292;2024-03-08T05:50:58;19.90;;;15.30;;
44536;SDS011;30245;51.966;6.292;2024-03-08T05:53:24;21.73;;;16.77;;
44536;SDS011;30245;51.966;6.292;2024-03-08T05:55:50;28.30;;;17.77;;
44536;SDS011;30245;51.966;6.292;2024-03-08T05:58:15;23.43;;;17.70;;
44536;SDS011;30245;51.966;6.292;2024-03-08T06:00:41;24.00;;;17.77;;
44536;SDS011;30245;51.966;6.292;2024-03-08T06:03:06;23.73;;;17.37;;
44536;SDS011;30245;51.966;6.292;2024-03-08T06:05:32;25.57;;;18.90;;
44536;SDS011;30245;51.966;6.292;2024-03-08T06:07:58;24.30;;;17.50;;
44536;SDS011;30245;51.966;6.292;2024-03-08T06:10:24;23.33;;;16.10;;
44536;SDS011;30245;51.966;6.292;2024-03-08T06:12:49;28.17;;;19.07;;
44536;SDS011;30245;51.966;6.292;2024-03-08T06:15:16;26.73;;;18.67;;
44536;SDS011;30245;51.966;6.292;2024-03-08T06:17:42;24.57;;;17.90;;
44536;SDS011;30245;51.966;6.292;2024-03-08T06:20:07;28.43;;;18.87;;
44536;SDS011;30245;51.966;6.292;2024-03-08T06:22:37;32.53;;;20.90;;
44536;SDS011;30245;51.966;6.292;2024-03-08T06:25:07;26.20;;;16.90;;
44536;SDS011;30245;51.966;6.292;2024-03-08T06:27:33;26.13;;;18.47;;
44536;SDS011;30245;51.966;6.292;2024-03-08T06:29:59;28.27;;;19.70;;
44536;SDS011;30245;51.966;6.292;2024-03-08T06:32:25;26.90;;;18.23;;
44536;SDS011;30245;51.966;6.292;2024-03-08T06:34:50;29.43;;;21.33;;
44536;SDS011;30245;51.966;6.292;2024-03-08T06:37:16;29.17;;;20.90;;
44536;SDS011;30245;51.966;6.292;2024-03-08T06:39:46;28.17;;;19.73;;
44536;SDS011;30245;51.966;6.292;2024-03-08T06:42:16;28.00;;;19.90;;
44536;SDS011;30245;51.966;6.292;2024-03-08T06:44:42;29.13;;;19.07;;
44536;SDS011;30245;51.966;6.292;2024-03-08T06:47:14;27.47;;;19.10;;
44536;SDS011;30245;51.966;6.292;2024-03-08T06:49:41;26.80;;;18.83;;
44536;SDS011;30245;51.966;6.292;2024-03-08T06:52:09;29.25;;;20.70;;
44536;SDS011;30245;51.966;6.292;2024-03-08T06:54:35;27.53;;;19.03;;
44536;SDS011;30245;51.966;6.292;2024-03-08T06:57:04;28.80;;;20.27;;
44536;SDS011;30245;51.966;6.292;2024-03-08T06:59:33;28.73;;;18.58;;
44536;SDS011;30245;51.966;6.292;2024-03-08T07:02:00;30.40;;;21.13;;
44536;SDS011;30245;51.966;6.292;2024-03-08T07:04:26;26.23;;;17.50;;
44536;SDS011;30245;51.966;6.292;2024-03-08T07:06:55;27.40;;;19.70;;
44536;SDS011;30245;51.966;6.292;2024-03-08T07:09:21;27.67;;;18.27;;
44536;SDS011;30245;51.966;6.292;2024-03-08T07:11:46;31.60;;;20.37;;
44536;SDS011;30245;51.966;6.292;2024-03-08T07:14:12;27.27;;;18.67;;
44536;SDS011;30245;51.966;6.292;2024-03-08T07:16:40;29.40;;;20.05;;
44536;SDS011;30245;51.966;6.292;2024-03-08T07:19:06;27.33;;;20.03;;
44536;SDS011;30245;51.966;6.292;2024-03-08T07:21:32;25.23;;;19.27;;
44536;SDS011;30245;51.966;6.292;2024-03-08T07:23:57;28.63;;;19.30;;
44536;SDS011;30245;51.966;6.292;2024-03-08T07:26:25;29.42;;;19.40;;
44536;SDS011;30245;51.966;6.292;2024-03-08T07:28:51;30.87;;;20.80;;
44536;SDS011;30245;51.966;6.292;2024-03-08T07:31:17;27.93;;;18.97;;
44536;SDS011;30245;51.966;6.292;2024-03-08T07:33:52;28.07;;;19.80;;
44536;SDS011;30245;51.966;6.292;2024-03-08T07:36:18;25.53;;;19.57;;
44536;SDS011;30245;51.966;6.292;2024-03-08T07:38:44;29.67;;;20.43;;
44536;SDS011;30245;51.966;6.292;2024-03-08T07:41:12;31.20;;;22.63;;
44536;SDS011;30245;51.966;6.292;2024-03-08T07:43:38;39.27;;;23.20;;
44536;SDS011;30245;51.966;6.292;2024-03-08T07:46:03;29.50;;;21.47;;
44536;SDS011;30245;51.966;6.292;2024-03-08T07:48:29;32.07;;;22.40;;
44536;SDS011;30245;51.966;6.292;2024-03-08T07:50:55;32.97;;;20.93;;
44536;SDS011;30245;51.966;6.292;2024-03-08T07:53:21;30.57;;;20.93;;
44536;SDS011;30245;51.966;6.292;2024-03-08T07:55:49;34.03;;;21.47;;
44536;SDS011;30245;51.966;6.292;2024-03-08T07:58:15;31.53;;;21.83;;
44536;SDS011;30245;51.966;6.292;2024-03-08T08:00:40;35.27;;;22.03;;
44536;SDS011;30245;51.966;6.292;2024-03-08T08:03:08;34.20;;;22.00;;
44536;SDS011;30245;51.966;6.292;2024-03-08T08:05:33;33.27;;;22.50;;
44536;SDS011;30245;51.966;6.292;2024-03-08T08:08:01;32.53;;;23.43;;
44536;SDS011;30245;51.966;6.292;2024-03-08T08:10:31;33.63;;;21.83;;
44536;SDS011;30245;51.966;6.292;2024-03-08T08:12:57;32.67;;;21.93;;
44536;SDS011;30245;51.966;6.292;2024-03-08T08:15:23;36.70;;;22.23;;
44536;SDS011;30245;51.966;6.292;2024-03-08T08:17:49;29.70;;;20.70;;
44536;SDS011;30245;51.966;6.292;2024-03-08T08:20:14;31.90;;;22.23;;
44536;SDS011;30245;51.966;6.292;2024-03-08T08:22:40;32.77;;;22.87;;
44536;SDS011;30245;51.966;6.292;2024-03-08T08:25:07;28.87;;;20.53;;
44536;SDS011;30245;51.966;6.292;2024-03-08T08:27:33;28.70;;;21.53;;
44536;SDS011;30245;51.966;6.292;2024-03-08T08:29:58;31.23;;;22.23;;
44536;SDS011;30245;51.966;6.292;2024-03-08T08:32:25;27.27;;;20.87;;
44536;SDS011;30245;51.966;6.292;2024-03-08T08:34:51;26.87;;;20.83;;
44536;SDS011;30245;51.966;6.292;2024-03-08T08:37:17;32.30;;;21.50;;
44536;SDS011;30245;51.966;6.292;2024-03-08T08:39:42;31.47;;;22.37;;
44536;SDS011;30245;51.966;6.292;2024-03-08T08:42:08;30.23;;;21.00;;
44536;SDS011;30245;51.966;6.292;2024-03-08T08:44:34;26.63;;;18.40;;
44536;SDS011;30245;51.966;6.292;2024-03-08T08:47:00;27.87;;;19.40;;
44536;SDS011;30245;51.966;6.292;2024-03-08T08:49:28;31.53;;;21.03;;
44536;SDS011;30245;51.966;6.292;2024-03-08T08:51:53;28.80;;;20.53;;
44536;SDS011;30245;51.966;6.292;2024-03-08T08:54:19;31.93;;;20.23;;
44536;SDS011;30245;51.966;6.292;2024-03-08T08:56:45;31.53;;;20.83;;
44536;SDS011;30245;51.966;6.292;2024-03-08T08:59:12;34.20;;;21.77;;
44536;SDS011;30245;51.966;6.292;2024-03-08T09:01:41;29.27;;;19.83;;
44536;SDS011;30245;51.966;6.292;2024-03-08T09:06:33;27.23;;;19.50;;
44536;SDS011;30245;51.966;6.292;2024-03-08T09:08:58;27.17;;;18.97;;
44536;SDS011;30245;51.966;6.292;2024-03-08T09:11:24;24.00;;;16.80;;
44536;SDS011;30245;51.966;6.292;2024-03-08T09:13:53;23.60;;;18.20;;
44536;SDS011;30245;51.966;6.292;2024-03-08T09:16:18;21.50;;;17.50;;
44536;SDS011;30245;51.966;6.292;2024-03-08T09:18:44;25.17;;;19.67;;
44536;SDS011;30245;51.966;6.292;2024-03-08T09:21:10;24.33;;;17.30;;
44536;SDS011;30245;51.966;6.292;2024-03-08T09:23:36;20.17;;;17.63;;
44536;SDS011;30245;51.966;6.292;2024-03-08T09:26:01;25.80;;;19.00;;
44536;SDS011;30245;51.966;6.292;2024-03-08T09:28:28;23.73;;;18.77;;
44536;SDS011;30245;51.966;6.292;2024-03-08T09:30:54;23.97;;;18.47;;
44536;SDS011;30245;51.966;6.292;2024-03-08T09:33:20;23.27;;;18.33;;
44536;SDS011;30245;51.966;6.292;2024-03-08T09:35:46;22.00;;;16.73;;
44536;SDS011;30245;51.966;6.292;2024-03-08T09:38:13;28.87;;;19.67;;
44536;SDS011;30245;51.966;6.292;2024-03-08T09:40:42;21.50;;;16.48;;
44536;SDS011;30245;51.966;6.292;2024-03-08T09:43:08;24.80;;;18.83;;
44536;SDS011;30245;51.966;6.292;2024-03-08T09:45:36;22.27;;;16.90;;
44536;SDS011;30245;51.966;6.292;2024-03-08T09:48:06;19.73;;;16.60;;
44536;SDS011;30245;51.966;6.292;2024-03-08T09:50:37;23.77;;;17.13;;
44536;SDS011;30245;51.966;6.292;2024-03-08T09:53:03;28.10;;;20.80;;
44536;SDS011;30245;51.966;6.292;2024-03-08T09:55:29;21.33;;;16.33;;
44536;SDS011;30245;51.966;6.292;2024-03-08T09:57:59;20.63;;;16.77;;
44536;SDS011;30245;51.966;6.292;2024-03-08T10:00:53;21.45;;;15.68;;
44536;SDS011;30245;51.966;6.292;2024-03-08T10:03:19;21.95;;;17.15;;
44536;SDS011;30245;51.966;6.292;2024-03-08T10:05:45;23.23;;;16.88;;
44536;SDS011;30245;51.966;6.292;2024-03-08T10:08:11;19.90;;;14.98;;
44536;SDS011;30245;51.966;6.292;2024-03-08T10:10:38;16.90;;;14.38;;
44536;SDS011;30245;51.966;6.292;2024-03-08T10:13:07;18.42;;;13.32;;
44536;SDS011;30245;51.966;6.292;2024-03-08T10:15:34;18.40;;;13.77;;
44536;SDS011;30245;51.966;6.292;2024-03-08T10:18:00;19.08;;;15.75;;
44536;SDS011;30245;51.966;6.292;2024-03-08T10:20:27;19.45;;;16.45;;
44536;SDS011;30245;51.966;6.292;2024-03-08T10:22:58;19.77;;;15.80;;
44536;SDS011;30245;51.966;6.292;2024-03-08T10:25:25;21.88;;;16.48;;
44536;SDS011;30245;51.966;6.292;2024-03-08T10:27:50;17.13;;;14.55;;
44536;SDS011;30245;51.966;6.292;2024-03-08T10:30:16;20.80;;;17.35;;
44536;SDS011;30245;51.966;6.292;2024-03-08T10:32:46;19.95;;;16.30;;
44536;SDS011;30245;51.966;6.292;2024-03-08T10:35:13;16.52;;;12.63;;
44536;SDS011;30245;51.966;6.292;2024-03-08T10:37:44;16.27;;;14.52;;
44536;SDS011;30245;51.966;6.292;2024-03-08T10:40:18;16.50;;;13.15;;
44536;SDS011;30245;51.966;6.292;2024-03-08T10:42:57;19.33;;;15.13;;
44536;SDS011;30245;51.966;6.292;2024-03-08T10:50:56;16.88;;;13.90;;
44536;SDS011;30245;51.966;6.292;2024-03-08T10:53:27;16.95;;;14.00;;
44536;SDS011;30245;51.966;6.292;2024-03-08T10:55:57;17.35;;;13.55;;
44536;SDS011;30245;51.966;6.292;2024-03-08T10:58:23;17.80;;;12.43;;
44536;SDS011;30245;51.966;6.292;2024-03-08T11:00:54;14.63;;;12.02;;
44536;SDS011;30245;51.966;6.292;2024-03-08T11:06:05;19.70;;;14.75;;
44536;SDS011;30245;51.966;6.292;2024-03-08T11:08:33;17.88;;;14.30;;
44536;SDS011;30245;51.966;6.292;2024-03-08T11:11:00;17.40;;;12.95;;
44536;SDS011;30245;51.966;6.292;2024-03-08T11:13:44;18.20;;;13.40;;
44536;SDS011;30245;51.966;6.292;2024-03-08T11:16:10;15.48;;;12.60;;
44536;SDS011;30245;51.966;6.292;2024-03-08T11:18:36;13.98;;;11.27;;
44536;SDS011;30245;51.966;6.292;2024-03-08T11:21:03;16.83;;;13.48;;
44536;SDS011;30245;51.966;6.292;2024-03-08T11:23:38;13.68;;;10.50;;
44536;SDS011;30245;51.966;6.292;2024-03-08T11:26:23;15.15;;;13.43;;
44536;SDS011;30245;51.966;6.292;2024-03-08T11:28:49;14.35;;;12.85;;
44536;SDS011;30245;51.966;6.292;2024-03-08T11:36:14;17.60;;;15.25;;
44536;SDS011;30245;51.966;6.292;2024-03-08T11:38:49;18.10;;;13.30;;
44536;SDS011;30245;51.966;6.292;2024-03-08T11:41:21;13.88;;;12.05;;
44536;SDS011;30245;51.966;6.292;2024-03-08T11:43:48;19.40;;;15.13;;
44536;SDS011;30245;51.966;6.292;2024-03-08T11:46:15;19.23;;;14.10;;
44536;SDS011;30245;51.966;6.292;2024-03-08T11:48:42;18.85;;;13.20;;
44536;SDS011;30245;51.966;6.292;2024-03-08T11:51:12;19.83;;;12.88;;
44536;SDS011;30245;51.966;6.292;2024-03-08T11:53:38;18.45;;;12.63;;
44536;SDS011;30245;51.966;6.292;2024-03-08T11:56:09;20.10;;;13.32;;
44536;SDS011;30245;51.966;6.292;2024-03-08T11:58:37;17.13;;;12.55;;
44536;SDS011;30245;51.966;6.292;2024-03-08T12:01:03;13.18;;;11.00;;
44536;SDS011;30245;51.966;6.292;2024-03-08T12:03:30;13.93;;;10.43;;
44536;SDS011;30245;51.966;6.292;2024-03-08T12:05:59;11.88;;;10.60;;
44536;SDS011;30245;51.966;6.292;2024-03-08T12:08:25;14.90;;;12.00;;
44536;SDS011;30245;51.966;6.292;2024-03-08T12:10:53;16.27;;;13.38;;
44536;SDS011;30245;51.966;6.292;2024-03-08T12:13:24;14.32;;;11.48;;
44536;SDS011;30245;51.966;6.292;2024-03-08T12:15:56;14.45;;;12.10;;
44536;SDS011;30245;51.966;6.292;2024-03-08T12:18:27;12.32;;;10.30;;
44536;SDS011;30245;51.966;6.292;2024-03-08T12:21:09;14.27;;;11.27;;
44536;SDS011;30245;51.966;6.292;2024-03-08T12:23:35;12.10;;;9.48;;
44536;SDS011;30245;51.966;6.292;2024-03-08T12:28:51;15.80;;;12.70;;
44536;SDS011;30245;51.966;6.292;2024-03-08T12:31:16;13.75;;;10.73;;
44536;SDS011;30245;51.966;6.292;2024-03-08T12:33:52;15.90;;;12.32;;
44536;SDS011;30245;51.966;6.292;2024-03-08T12:36:19;12.80;;;10.77;;
44536;SDS011;30245;51.966;6.292;2024-03-08T12:38:46;12.70;;;9.95;;
44536;SDS011;30245;51.966;6.292;2024-03-08T12:41:19;11.95;;;10.65;;
44536;SDS011;30245;51.966;6.292;2024-03-08T12:43:46;18.60;;;14.23;;
44536;SDS011;30245;51.966;6.292;2024-03-08T12:46:17;17.20;;;13.50;;
44536;SDS011;30245;51.966;6.292;2024-03-08T12:48:47;13.63;;;11.60;;
44536;SDS011;30245;51.966;6.292;2024-03-08T12:51:13;17.70;;;12.95;;
44536;SDS011;30245;51.966;6.292;2024-03-08T12:53:40;16.17;;;13.98;;
44536;SDS011;30245;51.966;6.292;2024-03-08T12:56:28;15.60;;;12.07;;
44536;SDS011;30245;51.966;6.292;2024-03-08T12:58:55;20.90;;;15.48;;
44536;SDS011;30245;51.966;6.292;2024-03-08T13:01:21;14.90;;;12.05;;
44536;SDS011;30245;51.966;6.292;2024-03-08T13:03:47;14.23;;;11.60;;
44536;SDS011;30245;51.966;6.292;2024-03-08T13:06:14;14.90;;;11.25;;
44536;SDS011;30245;51.966;6.292;2024-03-08T13:08:40;18.50;;;12.70;;
44536;SDS011;30245;51.966;6.292;2024-03-08T13:11:09;14.90;;;11.02;;
44536;SDS011;30245;51.966;6.292;2024-03-08T13:13:39;12.90;;;11.60;;
44536;SDS011;30245;51.966;6.292;2024-03-08T13:16:05;11.70;;;10.40;;
44536;SDS011;30245;51.966;6.292;2024-03-08T13:18:33;16.67;;;11.55;;
44536;SDS011;30245;51.966;6.292;2024-03-08T13:21:02;15.32;;;11.98;;
44536;SDS011;30245;51.966;6.292;2024-03-08T13:23:32;15.18;;;10.60;;
44536;SDS011;30245;51.966;6.292;2024-03-08T13:26:08;15.60;;;11.88;;
44536;SDS011;30245;51.966;6.292;2024-03-08T13:28:37;13.18;;;11.13;;
44536;SDS011;30245;51.966;6.292;2024-03-08T13:31:05;13.18;;;11.20;;
44536;SDS011;30245;51.966;6.292;2024-03-08T13:33:31;14.98;;;12.15;;
44536;SDS011;30245;51.966;6.292;2024-03-08T13:36:01;13.98;;;10.05;;
44536;SDS011;30245;51.966;6.292;2024-03-08T13:40:57;11.20;;;10.00;;
44536;SDS011;30245;51.966;6.292;2024-03-08T13:43:23;14.85;;;9.93;;
44536;SDS011;30245;51.966;6.292;2024-03-08T13:45:49;13.48;;;11.25;;
44536;SDS011;30245;51.966;6.292;2024-03-08T13:48:15;14.05;;;11.30;;
44536;SDS011;30245;51.966;6.292;2024-03-08T13:50:41;12.73;;;10.77;;
44536;SDS011;30245;51.966;6.292;2024-03-08T13:53:06;13.65;;;10.98;;
44536;SDS011;30245;51.966;6.292;2024-03-08T13:55:35;14.88;;;12.68;;
44536;SDS011;30245;51.966;6.292;2024-03-08T13:58:00;14.73;;;12.18;;
44536;SDS011;30245;51.966;6.292;2024-03-08T14:00:27;12.57;;;11.00;;
44536;SDS011;30245;51.966;6.292;2024-03-08T14:02:58;16.45;;;11.65;;
44536;SDS011;30245;51.966;6.292;2024-03-08T14:05:24;13.38;;;11.57;;
44536;SDS011;30245;51.966;6.292;2024-03-08T14:07:49;12.82;;;10.18;;
44536;SDS011;30245;51.966;6.292;2024-03-08T14:10:15;12.38;;;10.57;;
44536;SDS011;30245;51.966;6.292;2024-03-08T14:12:42;16.00;;;11.10;;
44536;SDS011;30245;51.966;6.292;2024-03-08T14:15:09;14.60;;;12.77;;
44536;SDS011;30245;51.966;6.292;2024-03-08T14:17:36;15.98;;;13.70;;
44536;SDS011;30245;51.966;6.292;2024-03-08T14:20:02;15.30;;;11.25;;
44536;SDS011;30245;51.966;6.292;2024-03-08T14:22:28;12.23;;;11.07;;
44536;SDS011;30245;51.966;6.292;2024-03-08T14:24:56;12.33;;;10.37;;
44536;SDS011;30245;51.966;6.292;2024-03-08T14:27:22;13.30;;;11.93;;
44536;SDS011;30245;51.966;6.292;2024-03-08T14:29:47;17.17;;;11.93;;
44536;SDS011;30245;51.966;6.292;2024-03-08T14:32:13;13.02;;;11.18;;
44536;SDS011;30245;51.966;6.292;2024-03-08T14:34:39;13.70;;;10.38;;
44536;SDS011;30245;51.966;6.292;2024-03-08T14:37:05;14.85;;;10.52;;
44536;SDS011;30245;51.966;6.292;2024-03-08T14:39:36;15.27;;;13.07;;
44536;SDS011;30245;51.966;6.292;2024-03-08T14:42:02;12.68;;;11.35;;